Time;durP1;ratioP1;P1;durP2;ratioP2;P2;SDS_P1;SDS_P2;PMS_P1;PMS_P2;Temp;Humidity;BMP_temperature;BMP_pressure;BME280_temperature;BME280_humidity;BME280_pressure;Samples;Min_cycle;Max_cycle;Signal;HPM_P1;HPM_P2
2023/12/04 00:00:02;;;;;;;38.70;23.67;;;-3.80;79.70;;;;;;6252606;28;20384;-80
2023/12/04 00:03:05;;;;;;;37.30;23.10;;;-3.80;79.80;;;;;;6244360;28;20240;-80
2023/12/04 00:06:10;;;;;;;45.93;26.93;;;-3.70;79.80;;;;;;6256040;28;20882;-81
2023/12/04 00:09:13;;;;;;;42.37;24.90;;;-3.80;79.80;;;;;;6252040;28;20329;-81
2023/12/04 00:12:17;;;;;;;46.90;27.73;;;-3.80;79.80;;;;;;6253709;28;20235;-80
2023/12/04 00:15:21;;;;;;;40.40;24.53;;;-3.80;79.90;;;;;;6256510;28;20242;-82
2023/12/04 00:18:24;;;;;;;42.70;25.03;;;-3.80;79.90;;;;;;6258249;28;20440;-80
2023/12/04 00:21:27;;;;;;;43.30;26.20;;;-3.80;79.90;;;;;;6244331;28;20261;-81
2023/12/04 00:24:30;;;;;;;42.60;24.57;;;-3.80;79.90;;;;;;6237860;28;20558;-80
2023/12/04 00:27:35;;;;;;;40.70;24.23;;;-3.80;80.00;;;;;;6250921;28;20226;-81
2023/12/04 00:30:39;;;;;;;40.57;24.53;;;-3.80;79.90;;;;;;6260656;28;20800;-81
2023/12/04 00:33:42;;;;;;;47.43;26.43;;;-3.80;79.90;;;;;;6253794;28;20256;-80
2023/12/04 00:36:45;;;;;;;47.93;25.90;;;-3.90;80.00;;;;;;6249601;28;20234;-82
2023/12/04 00:39:48;;;;;;;47.83;25.90;;;-3.90;80.40;;;;;;6255471;28;20238;-81
2023/12/04 00:42:53;;;;;;;48.27;27.60;;;-3.90;80.60;;;;;;6258794;28;20226;-82
2023/12/04 00:45:56;;;;;;;46.30;26.70;;;-4.00;80.70;;;;;;6255692;28;20442;-81
2023/12/04 00:49:00;;;;;;;44.27;26.50;;;-3.80;80.70;;;;;;6244248;28;20325;-78
2023/12/04 00:52:05;;;;;;;46.43;27.17;;;-3.80;81.40;;;;;;6257442;28;20294;-80
2023/12/04 00:55:09;;;;;;;50.37;26.30;;;-3.80;81.40;;;;;;6247813;28;20749;-82
2023/12/04 00:58:14;;;;;;;49.70;27.93;;;-3.80;81.50;;;;;;6248376;28;20683;-82
2023/12/04 01:01:17;;;;;;;44.43;25.57;;;-3.80;81.40;;;;;;6255507;28;20238;-81
2023/12/04 01:04:22;;;;;;;46.00;26.43;;;-3.80;81.50;;;;;;6259931;28;20379;-82
2023/12/04 01:07:25;;;;;;;44.03;27.53;;;-3.90;81.60;;;;;;6246363;28;20240;-80
2023/12/04 01:10:29;;;;;;;53.17;27.60;;;-3.90;81.80;;;;;;6271167;28;20261;-78
2023/12/04 01:13:33;;;;;;;47.63;25.60;;;-3.90;82.10;;;;;;6244692;28;20313;-79
2023/12/04 01:16:36;;;;;;;46.60;27.60;;;-3.90;82.20;;;;;;6243275;28;20778;-79
2023/12/04 01:19:40;;;;;;;43.47;26.47;;;-3.90;82.10;;;;;;6259464;28;20238;-81
2023/12/04 01:22:43;;;;;;;52.87;27.70;;;-4.00;82.30;;;;;;6251524;28;20233;-82
2023/12/04 01:25:46;;;;;;;44.17;25.20;;;-3.90;82.40;;;;;;6258954;28;20730;-80
2023/12/04 01:28:51;;;;;;;48.50;27.83;;;-3.90;82.40;;;;;;6257215;28;20237;-80
2023/12/04 01:31:54;;;;;;;55.63;29.37;;;-4.00;82.40;;;;;;6259082;28;20396;-80
2023/12/04 01:34:57;;;;;;;53.77;28.57;;;-4.00;82.30;;;;;;6260403;28;20729;-81
2023/12/04 01:38:00;;;;;;;49.17;27.53;;;-4.00;82.60;;;;;;6259547;28;20815;-81
2023/12/04 01:41:03;;;;;;;52.63;30.00;;;-4.00;82.50;;;;;;6259875;28;20481;-82
2023/12/04 01:44:07;;;;;;;55.17;28.90;;;-4.00;82.40;;;;;;6252436;28;20792;-79
2023/12/04 01:47:11;;;;;;;54.17;28.13;;;-4.00;82.40;;;;;;6251659;28;20256;-81
2023/12/04 01:50:15;;;;;;;46.57;26.67;;;-4.00;82.40;;;;;;6253405;28;20242;-80
2023/12/04 01:53:19;;;;;;;44.23;25.53;;;-3.90;82.30;;;;;;6251185;28;20254;-81
2023/12/04 01:56:22;;;;;;;44.73;26.80;;;-4.00;82.10;;;;;;6263332;28;20261;-80
2023/12/04 01:59:27;;;;;;;46.50;26.73;;;-4.00;82.10;;;;;;6256483;28;20364;-80
2023/12/04 02:02:30;;;;;;;42.60;25.80;;;-4.00;82.00;;;;;;6257537;28;20275;-81
2023/12/04 02:05:35;;;;;;;43.00;25.60;;;-4.00;81.90;;;;;;6255353;28;20238;-81
2023/12/04 02:08:42;;;;;;;41.50;25.30;;;-4.00;82.00;;;;;;6256843;28;20234;-79
2023/12/04 02:11:45;;;;;;;44.90;26.83;;;-4.00;81.80;;;;;;6257544;28;20308;-82
2023/12/04 02:14:49;;;;;;;40.77;25.30;;;-4.00;81.90;;;;;;6272661;28;20241;-83
2023/12/04 02:17:53;;;;;;;47.77;26.40;;;-4.00;81.90;;;;;;6260591;28;20307;-80
2023/12/04 02:20:56;;;;;;;49.73;27.33;;;-4.00;82.00;;;;;;6253578;28;20761;-82
2023/12/04 02:24:00;;;;;;;46.97;27.20;;;-4.00;82.10;;;;;;6255969;28;22183;-82
2023/12/04 02:27:11;;;;;;;52.30;27.20;;;-4.00;82.20;;;;;;6254061;28;20226;-79
2023/12/04 02:30:17;;;;;;;50.27;26.33;;;-4.00;82.00;;;;;;6252162;28;20235;-80
2023/12/04 02:33:24;;;;;;;49.80;29.17;;;-4.00;82.00;;;;;;6252476;28;20234;-81
2023/12/04 02:36:29;;;;;;;44.50;27.87;;;-4.00;82.10;;;;;;6256175;28;20262;-81
2023/12/04 02:39:34;;;;;;;47.67;27.50;;;-4.00;82.10;;;;;;6256372;28;20288;-80
2023/12/04 02:42:37;;;;;;;49.03;28.27;;;-4.00;82.00;;;;;;6256571;28;20265;-81
2023/12/04 02:45:43;;;;;;;47.27;28.10;;;-4.00;82.30;;;;;;6251439;28;20238;-80
2023/12/04 02:48:46;;;;;;;50.60;28.20;;;-4.00;82.20;;;;;;6254482;28;20244;-80
2023/12/04 02:51:49;;;;;;;47.40;27.97;;;-4.00;82.20;;;;;;6266741;28;20229;-80
2023/12/04 02:54:54;;;;;;;48.00;27.33;;;-4.00;82.30;;;;;;6263635;28;20311;-82
2023/12/04 02:57:57;;;;;;;50.53;27.93;;;-4.00;82.60;;;;;;6255453;28;20686;-82
2023/12/04 03:01:00;;;;;;;50.07;27.83;;;-4.00;82.40;;;;;;6261424;28;20253;-78
2023/12/04 03:04:03;;;;;;;55.60;29.87;;;-4.00;82.40;;;;;;6271336;28;20234;-80
2023/12/04 03:07:07;;;;;;;45.73;27.27;;;-4.00;82.20;;;;;;6263080;28;20222;-81
2023/12/04 03:10:11;;;;;;;48.97;27.20;;;-4.00;82.20;;;;;;6252498;28;20258;-81
2023/12/04 03:13:16;;;;;;;49.53;28.93;;;-4.00;81.80;;;;;;6254578;28;20610;-81
2023/12/04 03:16:19;;;;;;;48.87;28.53;;;-4.00;81.60;;;;;;6254578;28;20239;-80
2023/12/04 03:19:22;;;;;;;45.07;27.63;;;-4.00;81.60;;;;;;6263359;28;20248;-80
2023/12/04 03:22:28;;;;;;;43.33;26.80;;;-4.10;81.60;;;;;;6258413;28;20241;-83
2023/12/04 03:25:33;;;;;;;45.47;26.00;;;-4.00;81.70;;;;;;6254522;28;20245;-79
2023/12/04 03:28:37;;;;;;;43.80;25.93;;;-4.00;81.40;;;;;;6254361;28;20272;-81
2023/12/04 03:31:40;;;;;;;46.13;26.90;;;-4.10;81.30;;;;;;6253976;28;20258;-81
2023/12/04 03:34:43;;;;;;;41.23;25.07;;;-4.10;81.40;;;;;;6254314;28;20765;-81
2023/12/04 03:37:47;;;;;;;37.67;22.80;;;-4.10;81.40;;;;;;6252711;28;20857;-81
2023/12/04 03:40:52;;;;;;;46.30;25.43;;;-4.10;81.10;;;;;;6252379;28;20746;-81
2023/12/04 03:43:55;;;;;;;41.47;26.47;;;-4.10;81.00;;;;;;6252261;28;20749;-81
2023/12/04 03:46:58;;;;;;;41.67;24.13;;;-4.10;80.80;;;;;;6259141;28;20873;-79
2023/12/04 03:50:01;;;;;;;41.43;25.87;;;-4.20;80.30;;;;;;6254669;28;20234;-81
2023/12/04 03:53:04;;;;;;;39.17;24.53;;;-4.20;80.50;;;;;;6248474;28;20241;-81
2023/12/04 03:56:12;;;;;;;37.00;23.30;;;-4.20;80.40;;;;;;6247836;28;20227;-80
2023/12/04 03:59:15;;;;;;;41.90;24.93;;;-4.30;80.60;;;;;;6258088;28;20380;-81
2023/12/04 04:02:18;;;;;;;37.80;24.13;;;-4.30;80.70;;;;;;6256033;28;20504;-82
2023/12/04 04:05:21;;;;;;;35.20;23.70;;;-4.20;80.70;;;;;;6257350;28;20741;-81
2023/12/04 04:08:24;;;;;;;36.83;23.20;;;-4.20;80.20;;;;;;6244291;28;20439;-82
2023/12/04 04:11:29;;;;;;;37.67;23.57;;;-4.30;80.20;;;;;;6257584;28;20322;-81
2023/12/04 04:14:33;;;;;;;36.07;23.20;;;-4.20;80.20;;;;;;6231374;28;20245;-80
2023/12/04 04:17:36;;;;;;;34.73;22.63;;;-4.20;80.20;;;;;;6252287;28;20234;-82
2023/12/04 04:20:39;;;;;;;36.93;23.33;;;-4.30;80.20;;;;;;6255894;28;20242;-80
2023/12/04 04:23:42;;;;;;;38.57;24.60;;;-4.20;80.20;;;;;;6259890;28;20234;-82
2023/12/04 04:26:49;;;;;;;38.63;23.73;;;-4.20;80.10;;;;;;6252404;28;20900;-80
2023/12/04 04:29:52;;;;;;;39.10;23.53;;;-4.20;80.00;;;;;;6244788;28;20310;-82
2023/12/04 04:32:55;;;;;;;40.03;23.07;;;-4.20;79.80;;;;;;6247354;28;20299;-81
2023/12/04 04:35:58;;;;;;;38.10;22.60;;;-4.30;79.70;;;;;;6251575;28;20245;-80
2023/12/04 04:39:01;;;;;;;36.17;22.83;;;-4.30;79.60;;;;;;6256207;28;20317;-81
2023/12/04 04:42:06;;;;;;;35.63;21.87;;;-4.30;79.70;;;;;;6258826;28;20249;-81
2023/12/04 04:45:10;;;;;;;36.80;22.50;;;-4.40;79.60;;;;;;6252338;28;20241;-82
2023/12/04 04:48:13;;;;;;;42.07;24.30;;;-4.40;79.70;;;;;;6240773;28;20738;-83
2023/12/04 04:51:16;;;;;;;35.97;22.37;;;-4.40;79.60;;;;;;6252169;28;20254;-79
2023/12/04 04:54:19;;;;;;;35.30;22.90;;;-4.40;79.60;;;;;;6253374;28;20238;-80
2023/12/04 04:57:24;;;;;;;34.97;21.87;;;-4.40;79.70;;;;;;6259084;28;20324;-78
2023/12/04 05:00:27;;;;;;;37.63;22.17;;;-4.30;79.50;;;;;;6247320;28;20238;-81
2023/12/04 05:03:30;;;;;;;31.33;21.07;;;-4.30;79.40;;;;;;6259773;28;20740;-80
2023/12/04 05:06:34;;;;;;;38.63;22.77;;;-4.30;79.50;;;;;;6254021;28;20245;-81
2023/12/04 05:09:37;;;;;;;38.67;22.43;;;-4.30;79.30;;;;;;6263904;28;20238;-79
2023/12/04 05:12:41;;;;;;;32.80;21.50;;;-4.30;79.30;;;;;;6261021;28;20254;-82
2023/12/04 05:15:49;;;;;;;37.87;23.53;;;-4.30;79.20;;;;;;6250890;28;20706;-79
2023/12/04 05:18:52;;;;;;;30.47;21.10;;;-4.30;79.20;;;;;;6254063;28;20229;-82
2023/12/04 05:21:56;;;;;;;30.73;21.13;;;-4.30;79.20;;;;;;6258724;28;20245;-80
2023/12/04 05:24:59;;;;;;;32.83;22.03;;;-4.30;79.10;;;;;;6256644;28;20245;-80
2023/12/04 05:28:04;;;;;;;35.17;22.30;;;-4.30;79.20;;;;;;6254118;28;20233;-82
2023/12/04 05:31:07;;;;;;;36.13;22.23;;;-4.40;79.10;;;;;;6257780;28;20269;-80
2023/12/04 05:34:11;;;;;;;30.77;21.03;;;-4.40;79.10;;;;;;6257118;28;20248;-81
2023/12/04 05:37:14;;;;;;;33.60;22.33;;;-4.40;78.90;;;;;;6251261;28;20238;-80
2023/12/04 05:40:18;;;;;;;37.93;22.20;;;-4.40;79.00;;;;;;6256730;28;20226;-80
2023/12/04 05:43:22;;;;;;;36.83;22.97;;;-4.40;79.00;;;;;;6264491;28;20835;-80
2023/12/04 05:46:25;;;;;;;38.53;23.23;;;-4.40;78.90;;;;;;6253501;28;20615;-80
2023/12/04 05:49:30;;;;;;;35.63;23.47;;;-4.40;79.20;;;;;;6262221;28;22718;-80
2023/12/04 05:52:34;;;;;;;36.27;24.70;;;-4.40;79.20;;;;;;6248523;28;20861;-81
2023/12/04 05:55:36;;;;;;;35.63;22.50;;;-4.50;79.10;;;;;;6251073;28;20321;-81
2023/12/04 05:58:41;;;;;;;33.83;21.87;;;-4.40;79.20;;;;;;6255574;28;20234;-82
2023/12/04 06:01:44;;;;;;;29.63;21.17;;;-4.40;79.20;;;;;;6251810;28;20279;-81
2023/12/04 06:04:48;;;;;;;34.97;22.27;;;-4.30;79.10;;;;;;6255192;28;20812;-81
2023/12/04 06:07:51;;;;;;;35.37;22.13;;;-4.30;79.20;;;;;;6248217;28;20854;-81
2023/12/04 06:10:57;;;;;;;39.50;22.30;;;-4.30;79.50;;;;;;6265222;28;20339;-82
2023/12/04 06:14:02;;;;;;;35.43;24.17;;;-4.20;79.30;;;;;;6259080;28;20238;-80
2023/12/04 06:17:06;;;;;;;37.53;23.23;;;-4.20;79.00;;;;;;6256416;28;20829;-81
2023/12/04 06:20:11;;;;;;;33.50;22.17;;;-4.20;79.00;;;;;;6257590;28;20745;-83
2023/12/04 06:23:15;;;;;;;34.47;22.67;;;-4.20;79.10;;;;;;6266110;28;20917;-81
2023/12/04 06:26:18;;;;;;;35.47;22.80;;;-4.20;79.20;;;;;;6266226;28;20293;-83
2023/12/04 06:29:24;;;;;;;34.67;22.23;;;-4.20;79.40;;;;;;6263516;28;20317;-78
2023/12/04 06:32:28;;;;;;;36.90;23.63;;;-4.10;79.40;;;;;;6255882;28;20322;-81
2023/12/04 06:35:31;;;;;;;35.33;22.63;;;-4.00;79.20;;;;;;6260541;28;20328;-84
2023/12/04 06:38:40;;;;;;;32.13;21.07;;;-4.00;79.10;;;;;;6256897;28;20284;-84
2023/12/04 06:41:44;;;;;;;39.67;23.80;;;-4.00;79.20;;;;;;6262260;28;20811;-83
2023/12/04 06:44:49;;;;;;;32.80;22.07;;;-4.00;79.10;;;;;;6241376;28;20392;-83
2023/12/04 06:47:54;;;;;;;34.73;23.50;;;-4.00;79.20;;;;;;6245878;28;20871;-83
2023/12/04 06:50:59;;;;;;;38.07;22.77;;;-4.00;79.10;;;;;;6258396;28;20278;-83
2023/12/04 06:54:02;;;;;;;34.93;23.57;;;-3.80;78.80;;;;;;6252619;28;20238;-82
2023/12/04 06:57:06;;;;;;;36.97;22.80;;;-3.80;78.90;;;;;;6253324;28;20288;-81
2023/12/04 07:00:14;;;;;;;32.63;22.03;;;-3.80;78.80;;;;;;6256645;28;20291;-82
2023/12/04 07:03:24;;;;;;;34.73;21.80;;;-3.80;78.60;;;;;;6229625;28;20285;-81
2023/12/04 07:06:27;;;;;;;35.60;21.30;;;-3.80;78.70;;;;;;6234545;28;20230;-83
2023/12/04 07:09:30;;;;;;;33.33;22.43;;;-3.80;78.50;;;;;;6258959;28;20683;-83
2023/12/04 07:12:34;;;;;;;33.57;21.53;;;-3.80;78.40;;;;;;6255854;28;20230;-83
2023/12/04 07:15:38;;;;;;;33.40;21.77;;;-3.70;78.20;;;;;;6256257;28;20242;-83
2023/12/04 07:18:42;;;;;;;34.33;22.70;;;-3.80;78.10;;;;;;6253415;28;20836;-82
2023/12/04 07:21:45;;;;;;;30.17;22.33;;;-3.70;78.00;;;;;;6248680;28;20266;-83
2023/12/04 07:24:48;;;;;;;37.10;22.57;;;-3.70;78.10;;;;;;6251573;28;20658;-83
2023/12/04 07:27:51;;;;;;;40.60;23.77;;;-3.70;77.90;;;;;;6249488;28;20321;-80
2023/12/04 07:30:57;;;;;;;34.03;21.27;;;-3.80;78.00;;;;;;6255985;28;20226;-83
2023/12/04 07:34:02;;;;;;;30.50;22.03;;;-3.60;78.10;;;;;;6249714;28;20242;-83
2023/12/04 07:37:07;;;;;;;34.73;22.63;;;-3.60;78.30;;;;;;6252231;28;20243;-82
2023/12/04 07:40:11;;;;;;;33.73;22.03;;;-3.60;77.80;;;;;;6254314;28;20225;-82
2023/12/04 07:43:15;;;;;;;34.27;21.37;;;-3.60;77.50;;;;;;6247626;28;20234;-82
2023/12/04 07:46:19;;;;;;;29.70;20.87;;;-3.50;77.50;;;;;;6242505;28;20373;-81
2023/12/04 07:49:23;;;;;;;34.87;21.40;;;-3.40;77.40;;;;;;6257151;28;20235;-80
2023/12/04 07:52:26;;;;;;;33.10;20.83;;;-3.40;77.20;;;;;;6259281;28;20231;-82
2023/12/04 07:55:29;;;;;;;33.53;21.47;;;-3.40;77.00;;;;;;6255434;28;20614;-82
2023/12/04 07:58:32;;;;;;;34.37;20.70;;;-3.40;76.50;;;;;;6252872;28;20380;-83
2023/12/04 08:01:37;;;;;;;32.57;22.20;;;-3.50;76.60;;;;;;6245350;28;20664;-81
2023/12/04 08:04:40;;;;;;;33.83;21.07;;;-3.50;76.80;;;;;;6255049;28;20241;-82
2023/12/04 08:07:43;;;;;;;26.70;19.60;;;-3.40;76.90;;;;;;6241672;28;20249;-82
2023/12/04 08:10:46;;;;;;;33.00;20.80;;;-3.30;76.50;;;;;;6271463;28;20221;-80
2023/12/04 08:13:49;;;;;;;35.60;19.97;;;-3.20;76.50;;;;;;6254340;28;20226;-81
2023/12/04 08:16:54;;;;;;;29.97;20.70;;;-3.20;76.30;;;;;;6249814;28;20238;-82
2023/12/04 08:19:58;;;;;;;40.73;21.60;;;-3.20;76.10;;;;;;6245647;28;20245;-82
2023/12/04 08:23:01;;;;;;;31.43;20.83;;;-3.20;76.50;;;;;;6250437;28;20249;-81
2023/12/04 08:26:05;;;;;;;32.83;20.33;;;-3.10;76.40;;;;;;6252225;28;20246;-81
2023/12/04 08:29:08;;;;;;;31.90;21.57;;;-3.00;76.20;;;;;;6247255;28;20261;-83
2023/12/04 08:32:12;;;;;;;30.70;20.67;;;-2.80;75.90;;;;;;6250284;28;20661;-83
2023/12/04 08:35:16;;;;;;;30.23;20.73;;;-2.80;75.60;;;;;;6249265;28;20746;-83
2023/12/04 08:38:19;;;;;;;26.77;19.83;;;-2.70;75.70;;;;;;6252043;28;20265;-81
2023/12/04 08:41:22;;;;;;;30.47;20.27;;;-2.60;75.50;;;;;;6255198;28;20238;-81
2023/12/04 08:44:25;;;;;;;32.83;20.83;;;-2.50;75.20;;;;;;6250231;28;20250;-83
2023/12/04 08:47:29;;;;;;;29.87;20.50;;;-2.40;74.70;;;;;;6241161;28;20242;-81
2023/12/04 08:50:33;;;;;;;32.30;20.43;;;-2.40;74.90;;;;;;6241331;28;20272;-82
2023/12/04 08:53:36;;;;;;;27.13;19.67;;;-2.30;74.70;;;;;;6254732;28;20238;-82
2023/12/04 08:56:39;;;;;;;28.00;19.60;;;-2.10;74.40;;;;;;6253670;28;20261;-81
2023/12/04 08:59:43;;;;;;;28.03;19.27;;;-2.10;73.50;;;;;;6256480;28;20237;-82
2023/12/04 09:02:48;;;;;;;28.07;19.20;;;-2.10;73.50;;;;;;6249792;28;20333;-83
2023/12/04 09:06:07;;;;;;;29.23;19.73;;;-2.10;73.90;;;;;;6253709;28;20241;-84
2023/12/04 09:09:11;;;;;;;27.27;19.57;;;-2.10;73.60;;;;;;6250661;28;20241;-82
2023/12/04 09:12:17;;;;;;;25.77;18.07;;;-1.90;73.50;;;;;;6251327;28;20234;-83
2023/12/04 09:15:20;;;;;;;26.10;18.93;;;-1.90;73.10;;;;;;6251719;28;20890;-82
2023/12/04 09:18:25;;;;;;;28.77;18.20;;;-1.90;73.30;;;;;;6255530;28;20234;-82
2023/12/04 09:21:28;;;;;;;26.50;18.33;;;-1.90;73.30;;;;;;6249810;28;20994;-82
2023/12/04 09:24:31;;;;;;;26.33;19.27;;;-1.90;72.80;;;;;;6251060;28;20234;-82
2023/12/04 09:27:35;;;;;;;27.63;18.73;;;-1.90;72.60;;;;;;6248434;28;20230;-82
2023/12/04 09:30:39;;;;;;;27.70;19.30;;;-1.90;72.70;;;;;;6249048;28;20257;-82
2023/12/04 09:33:43;;;;;;;26.73;19.03;;;-2.00;72.60;;;;;;6253093;28;20863;-82
2023/12/04 09:36:48;;;;;;;23.33;17.97;;;-1.90;72.80;;;;;;6252068;28;20746;-81
2023/12/04 09:39:54;;;;;;;27.30;18.30;;;-2.00;72.80;;;;;;6252808;28;20226;-80
2023/12/04 09:42:57;;;;;;;25.33;18.30;;;-2.00;72.60;;;;;;6255064;28;20514;-82
2023/12/04 09:46:01;;;;;;;25.07;17.93;;;-1.90;72.30;;;;;;6252832;28;20259;-83
2023/12/04 09:49:05;;;;;;;23.00;17.13;;;-1.80;72.50;;;;;;6252015;28;20784;-81
2023/12/04 09:52:09;;;;;;;23.30;17.93;;;-1.90;72.40;;;;;;6251603;28;20261;-84
2023/12/04 09:55:12;;;;;;;23.70;17.70;;;-1.90;72.40;;;;;;6249505;28;20250;-83
2023/12/04 09:58:16;;;;;;;24.13;17.80;;;-1.80;72.50;;;;;;6246957;28;20718;-84
2023/12/04 10:01:20;;;;;;;26.07;18.43;;;-1.70;72.20;;;;;;6242378;28;20249;-85
2023/12/04 10:04:27;;;;;;;22.93;18.00;;;-1.60;71.90;;;;;;6248206;28;20262;-83
2023/12/04 10:07:31;;;;;;;22.93;16.37;;;-1.60;72.00;;;;;;6243411;28;20241;-83
2023/12/04 10:10:34;;;;;;;23.23;17.50;;;-1.50;71.90;;;;;;6252705;28;20265;-83
2023/12/04 10:13:37;;;;;;;25.13;17.60;;;-1.50;71.80;;;;;;6239396;28;20325;-83
2023/12/04 10:17:00;;;;;;;23.47;17.73;;;-1.30;71.50;;;;;;6252632;28;20265;-83
2023/12/04 10:20:12;;;;;;;24.80;16.73;;;-1.30;71.50;;;;;;6259664;28;20691;-83
2023/12/04 10:23:15;;;;;;;25.37;18.30;;;-1.30;71.20;;;;;;6252030;28;20610;-83
2023/12/04 10:26:18;;;;;;;22.40;17.63;;;-1.30;71.40;;;;;;6248697;28;20242;-83
2023/12/04 10:29:21;;;;;;;22.30;16.80;;;-1.20;71.10;;;;;;6251504;28;20234;-84
2023/12/04 10:32:24;;;;;;;24.77;17.67;;;-1.10;70.90;;;;;;6238259;28;20985;-82
2023/12/04 10:35:31;;;;;;;25.03;17.80;;;-1.00;70.50;;;;;;6265983;28;20242;-84
2023/12/04 10:38:35;;;;;;;27.93;18.60;;;-0.90;70.10;;;;;;6247764;28;20773;-82
2023/12/04 10:41:38;;;;;;;37.83;19.00;;;-0.90;70.30;;;;;;6259553;28;20237;-81
2023/12/04 10:44:42;;;;;;;25.33;17.77;;;-0.90;70.20;;;;;;6251075;28;20239;-84
2023/12/04 10:47:46;;;;;;;25.23;17.77;;;-1.10;70.30;;;;;;6259537;28;20320;-83
2023/12/04 10:50:50;;;;;;;21.73;16.63;;;-0.90;70.00;;;;;;6252609;28;20234;-84
2023/12/04 10:53:53;;;;;;;19.60;16.83;;;-0.90;70.20;;;;;;6250915;28;20250;-83
2023/12/04 10:57:02;;;;;;;20.27;15.40;;;-0.70;70.40;;;;;;6254317;28;20762;-83
2023/12/04 11:00:21;;;;;;;22.17;15.47;;;-0.70;70.10;;;;;;6227841;28;20250;-82
2023/12/04 11:08:18;;;;;;;21.83;15.70;;;-0.50;70.10;;;;;;6215898;28;20260;-82
2023/12/04 11:11:25;;;;;;;20.57;16.73;;;-0.70;69.40;;;;;;6257964;28;20239;-84
2023/12/04 11:14:35;;;;;;;18.93;15.27;;;-0.60;69.50;;;;;;6255196;28;20769;-82
2023/12/04 11:17:42;;;;;;;19.30;15.67;;;-0.60;69.10;;;;;;6253148;28;20238;-82
2023/12/04 11:20:50;;;;;;;19.37;15.60;;;-0.70;69.10;;;;;;6248303;28;20242;-84
2023/12/04 11:23:55;;;;;;;19.27;14.50;;;-0.90;69.90;;;;;;6253343;28;20249;-83
2023/12/04 11:26:59;;;;;;;16.80;14.80;;;-0.80;69.90;;;;;;6251335;28;20310;-81
2023/12/04 11:30:04;;;;;;;18.80;14.73;;;-0.80;70.00;;;;;;6253288;28;20246;-83
2023/12/04 11:33:07;;;;;;;23.70;15.03;;;-0.70;70.00;;;;;;6255910;28;20845;-83
2023/12/04 11:36:12;;;;;;;19.27;14.67;;;-0.60;69.40;;;;;;6251937;28;20238;-84
2023/12/04 11:39:20;;;;;;;18.70;14.63;;;-0.60;69.60;;;;;;6257815;28;20239;-81
2023/12/04 11:42:24;;;;;;;18.97;15.80;;;-0.70;69.50;;;;;;6256305;28;20234;-82
2023/12/04 11:45:34;;;;;;;17.83;14.83;;;-0.50;69.30;;;;;;6258312;28;20230;-82
2023/12/04 11:48:38;;;;;;;18.47;14.53;;;-0.50;68.90;;;;;;6247406;28;20239;-83
2023/12/04 11:51:50;;;;;;;16.43;13.70;;;-0.70;69.70;;;;;;6248700;28;20901;-81
2023/12/04 11:55:03;;;;;;;21.47;16.07;;;-0.50;69.30;;;;;;6257504;28;20468;-81
2023/12/04 11:58:10;;;;;;;17.77;14.90;;;-0.40;69.30;;;;;;6249163;28;20359;-84
2023/12/04 12:01:14;;;;;;;18.83;14.23;;;-0.30;69.10;;;;;;6253507;28;20246;-81
2023/12/04 12:04:18;;;;;;;17.20;14.17;;;-0.30;69.30;;;;;;6249568;28;20245;-82
2023/12/04 12:07:21;;;;;;;16.93;14.30;;;-0.20;68.80;;;;;;6242298;28;20633;-81
2023/12/04 12:10:27;;;;;;;16.63;13.97;;;-0.10;68.30;;;;;;6249371;28;20238;-83
2023/12/04 12:13:30;;;;;;;15.57;13.53;;;-0.10;68.40;;;;;;6243153;28;21001;-83
2023/12/04 12:16:34;;;;;;;17.00;13.10;;;-0.10;68.60;;;;;;6251743;28;20241;-83
2023/12/04 12:19:38;;;;;;;15.70;13.50;;;-0.10;68.50;;;;;;6246468;28;20903;-82
2023/12/04 12:22:43;;;;;;;17.23;13.90;;;-0.10;68.10;;;;;;6250889;28;20648;-81
2023/12/04 12:25:49;;;;;;;15.10;12.83;;;-0.10;68.50;;;;;;6250720;28;20271;-82
2023/12/04 12:28:54;;;;;;;17.50;13.90;;;-0.20;68.70;;;;;;6245785;28;20791;-81
2023/12/04 12:31:57;;;;;;;17.77;13.33;;;-0.20;68.70;;;;;;6247437;28;20335;-84
2023/12/04 12:35:01;;;;;;;16.77;14.17;;;-0.20;68.60;;;;;;6250670;28;20907;-83
2023/12/04 12:38:04;;;;;;;17.20;14.27;;;-0.20;68.80;;;;;;6252158;28;20693;-83
2023/12/04 12:41:11;;;;;;;20.40;15.17;;;-0.20;69.10;;;;;;6246666;28;20222;-81
2023/12/04 12:44:14;;;;;;;16.33;14.10;;;-0.40;69.50;;;;;;6253573;28;20771;-82
2023/12/04 12:47:19;;;;;;;21.00;15.60;;;-0.40;70.10;;;;;;6249319;28;20333;-84
2023/12/04 12:50:23;;;;;;;16.83;14.30;;;-0.30;69.70;;;;;;6244726;28;20235;-82
2023/12/04 12:53:27;;;;;;;17.00;13.57;;;-0.40;69.80;;;;;;6242141;28;20260;-83
2023/12/04 12:56:32;;;;;;;19.17;15.07;;;-0.30;69.70;;;;;;6247602;28;20226;-83
2023/12/04 12:59:35;;;;;;;16.70;14.30;;;-0.30;69.90;;;;;;6240990;28;20249;-83
2023/12/04 13:02:38;;;;;;;16.77;14.10;;;-0.40;70.10;;;;;;6248938;28;20245;-83
2023/12/04 13:05:41;;;;;;;16.47;14.33;;;-0.30;70.20;;;;;;6245341;28;20363;-83
2023/12/04 13:08:44;;;;;;;21.47;15.27;;;-0.40;70.00;;;;;;6244483;28;20238;-83
2023/12/04 13:11:51;;;;;;;17.53;14.87;;;-0.50;70.30;;;;;;6246053;28;20240;-82
2023/12/04 13:14:55;;;;;;;18.17;14.93;;;-0.60;70.70;;;;;;6248528;28;20270;-82
2023/12/04 13:17:58;;;;;;;16.20;14.10;;;-0.70;71.20;;;;;;6249949;28;20314;-81
2023/12/04 13:21:01;;;;;;;16.07;13.60;;;-0.50;71.10;;;;;;6245410;28;20242;-81
2023/12/04 13:24:07;;;;;;;16.87;14.50;;;-0.50;71.10;;;;;;6242957;28;20238;-82
2023/12/04 13:27:13;;;;;;;17.83;14.23;;;-0.40;70.90;;;;;;6249639;28;20226;-83
2023/12/04 13:30:16;;;;;;;19.73;15.57;;;-0.40;70.70;;;;;;6246527;28;20249;-84
2023/12/04 13:33:20;;;;;;;18.73;15.17;;;-0.40;70.70;;;;;;6245088;28;20334;-83
2023/12/04 13:36:23;;;;;;;17.20;14.83;;;-0.50;70.70;;;;;;6250277;28;20272;-82
2023/12/04 13:39:47;;;;;;;19.77;14.00;;;-0.60;71.30;;;;;;6248438;28;20242;-82
2023/12/04 13:46:12;;;;;;;19.03;13.90;;;-0.50;71.20;;;;;;6250062;28;20250;-84
2023/12/04 13:49:19;;;;;;;18.20;14.90;;;-0.60;71.10;;;;;;6251232;28;20290;-83
2023/12/04 13:52:23;;;;;;;19.03;13.90;;;-0.60;71.30;;;;;;6255381;28;20226;-82
2023/12/04 13:55:43;;;;;;;21.87;17.00;;;-0.60;71.40;;;;;;6254764;28;20245;-81
2023/12/04 13:58:55;;;;;;;17.07;14.50;;;-0.70;71.20;;;;;;6255578;28;20234;-85
2023/12/04 14:02:00;;;;;;;16.33;14.13;;;-0.70;71.30;;;;;;6246582;28;20321;-83
2023/12/04 14:05:04;;;;;;;19.70;16.23;;;-0.70;71.40;;;;;;6256092;28;20237;-84
2023/12/04 14:08:07;;;;;;;17.67;14.53;;;-0.70;71.40;;;;;;6245310;28;20230;-83
2023/12/04 14:11:11;;;;;;;20.63;15.63;;;-0.70;71.60;;;;;;6242714;28;20276;-83
2023/12/04 14:14:16;;;;;;;19.27;14.80;;;-0.70;71.80;;;;;;6249213;28;22887;-82
2023/12/04 14:17:19;;;;;;;16.70;14.03;;;-0.70;71.90;;;;;;6246129;28;20637;-81
2023/12/04 14:20:25;;;;;;;20.23;14.60;;;-0.70;71.70;;;;;;6246459;28;20252;-83
2023/12/04 14:23:28;;;;;;;16.63;14.60;;;-0.70;71.50;;;;;;6246286;28;20280;-83
2023/12/04 14:26:31;;;;;;;18.73;14.53;;;-0.70;71.60;;;;;;6259858;28;20234;-82
2023/12/04 14:29:35;;;;;;;15.80;14.00;;;-0.70;71.70;;;;;;6252603;28;20241;-84
2023/12/04 14:32:38;;;;;;;22.07;14.80;;;-0.70;72.10;;;;;;6256673;28;20565;-82
2023/12/04 14:35:50;;;;;;;19.27;14.77;;;-0.80;71.90;;;;;;6263003;28;20234;-84
2023/12/04 14:38:54;;;;;;;15.70;14.00;;;-0.90;72.20;;;;;;6252624;28;20299;-82
2023/12/04 14:41:58;;;;;;;18.37;14.60;;;-0.80;72.00;;;;;;6257300;28;20323;-82
2023/12/04 14:45:04;;;;;;;19.57;15.13;;;-0.90;72.00;;;;;;6254987;28;20719;-82
2023/12/04 14:48:07;;;;;;;20.10;16.13;;;-1.00;72.20;;;;;;6253388;28;20255;-82
2023/12/04 14:51:12;;;;;;;18.43;15.13;;;-1.10;72.80;;;;;;6252791;28;20630;-83
2023/12/04 14:54:21;;;;;;;20.43;15.53;;;-1.10;73.00;;;;;;6252140;28;20246;-84
2023/12/04 14:57:49;;;;;;;21.33;15.27;;;-1.10;72.90;;;;;;6248484;28;20291;-81
2023/12/04 15:11:35;;;;;;;17.83;14.60;;;-1.10;72.70;;;;;;6256145;28;20926;-82
2023/12/04 15:14:43;;;;;;;19.53;14.33;;;-1.00;72.60;;;;;;6255786;28;20234;-81
2023/12/04 15:17:50;;;;;;;19.80;15.70;;;-1.00;72.80;;;;;;6255240;28;20233;-83
2023/12/04 15:20:55;;;;;;;17.67;14.67;;;-1.10;72.80;;;;;;6248472;28;20238;-83
2023/12/04 15:23:57;;;;;;;21.30;15.40;;;-1.00;72.90;;;;;;6256631;28;20253;-83
2023/12/04 15:27:00;;;;;;;20.63;15.90;;;-1.10;72.70;;;;;;6253172;28;20454;-84
2023/12/04 15:30:04;;;;;;;22.40;16.00;;;-1.10;72.70;;;;;;6251072;28;20237;-82
2023/12/04 15:33:08;;;;;;;20.30;16.13;;;-1.00;72.80;;;;;;6250502;28;20768;-84
2023/12/04 15:36:11;;;;;;;21.40;15.47;;;-1.00;72.60;;;;;;6252608;28;20266;-84
2023/12/04 15:39:18;;;;;;;20.13;16.03;;;-1.00;72.90;;;;;;6247701;28;20239;-82
2023/12/04 15:42:24;;;;;;;22.17;15.67;;;-1.00;72.60;;;;;;6258015;28;20618;-85
2023/12/04 15:45:27;;;;;;;20.10;15.50;;;-1.00;72.70;;;;;;6226764;28;20231;-82
2023/12/04 15:48:33;;;;;;;20.63;15.80;;;-1.00;72.60;;;;;;6236339;28;20933;-82
2023/12/04 15:51:37;;;;;;;22.27;15.10;;;-1.00;72.80;;;;;;6235143;28;20253;-80
2023/12/04 15:54:41;;;;;;;19.53;15.33;;;-0.90;72.70;;;;;;6234188;28;20379;-81